sensor_id;sensor_type;location;lat;lon;timestamp;temperature;humidity
40053;DHT22;25758;48.200;16.338;2022-09-06T00:01:42;21.20;97.90
40053;DHT22;25758;48.200;16.338;2022-09-06T00:04:08;21.20;97.90
40053;DHT22;25758;48.200;16.338;2022-09-06T00:06:34;21.20;97.90
40053;DHT22;25758;48.200;16.338;2022-09-06T00:08:59;21.20;97.90
40053;DHT22;25758;48.200;16.338;2022-09-06T00:11:25;21.10;98.00
40053;DHT22;25758;48.200;16.338;2022-09-06T00:13:51;21.10;98.00
40053;DHT22;25758;48.200;16.338;2022-09-06T00:16:19;21.10;98.00
40053;DHT22;25758;48.200;16.338;2022-09-06T00:18:46;21.10;98.30
40053;DHT22;25758;48.200;16.338;2022-09-06T00:21:21;21.10;98.10
40053;DHT22;25758;48.200;16.338;2022-09-06T00:23:47;21.10;98.00
40053;DHT22;25758;48.200;16.338;2022-09-06T00:26:13;21.10;98.10
40053;DHT22;25758;48.200;16.338;2022-09-06T00:28:39;21.10;98.20
40053;DHT22;25758;48.200;16.338;2022-09-06T00:31:20;21.10;98.10
40053;DHT22;25758;48.200;16.338;2022-09-06T00:33:46;21.00;98.20
40053;DHT22;25758;48.200;16.338;2022-09-06T00:36:12;21.00;98.30
40053;DHT22;25758;48.200;16.338;2022-09-06T00:38:38;21.00;98.30
40053;DHT22;25758;48.200;16.338;2022-09-06T00:41:06;21.00;98.40
40053;DHT22;25758;48.200;16.338;2022-09-06T00:43:32;20.90;98.30
40053;DHT22;25758;48.200;16.338;2022-09-06T00:45:59;20.90;98.30
40053;DHT22;25758;48.200;16.338;2022-09-06T00:48:25;20.90;98.40
40053;DHT22;25758;48.200;16.338;2022-09-06T00:50:54;20.80;98.40
40053;DHT22;25758;48.200;16.338;2022-09-06T00:53:21;20.80;98.50
40053;DHT22;25758;48.200;16.338;2022-09-06T00:55:46;20.80;98.50
40053;DHT22;25758;48.200;16.338;2022-09-06T00:58:13;20.80;98.70
40053;DHT22;25758;48.200;16.338;2022-09-06T01:00:38;20.80;98.80
40053;DHT22;25758;48.200;16.338;2022-09-06T01:03:05;20.70;98.90
40053;DHT22;25758;48.200;16.338;2022-09-06T01:14:28;20.60;99.20
40053;DHT22;25758;48.200;16.338;2022-09-06T01:30:49;20.50;99.60
40053;DHT22;25758;48.200;16.338;2022-09-06T01:33:23;20.50;99.70
40053;DHT22;25758;48.200;16.338;2022-09-06T01:35:54;20.50;99.80
40053;DHT22;25758;48.200;16.338;2022-09-06T01:38:21;20.40;99.90
40053;DHT22;25758;48.200;16.338;2022-09-06T01:40:47;20.40;99.90
40053;DHT22;25758;48.200;16.338;2022-09-06T01:43:21;20.40;99.90
40053;DHT22;25758;48.200;16.338;2022-09-06T01:46:13;20.40;99.90
40053;DHT22;25758;48.200;16.338;2022-09-06T01:57:07;20.30;99.90
40053;DHT22;25758;48.200;16.338;2022-09-06T01:59:49;20.30;99.90
40053;DHT22;25758;48.200;16.338;2022-09-06T02:02:25;20.30;99.90
40053;DHT22;25758;48.200;16.338;2022-09-06T02:05:05;20.30;99.90
40053;DHT22;25758;48.200;16.338;2022-09-06T02:07:34;20.20;99.90
40053;DHT22;25758;48.200;16.338;2022-09-06T02:10:17;20.20;99.90
40053;DHT22;25758;48.200;16.338;2022-09-06T02:12:47;20.20;99.90
40053;DHT22;25758;48.200;16.338;2022-09-06T02:15:19;20.20;99.90
40053;DHT22;25758;48.200;16.338;2022-09-06T02:17:59;20.20;99.90
40053;DHT22;25758;48.200;16.338;2022-09-06T02:20:29;20.20;99.90
40053;DHT22;25758;48.200;16.338;2022-09-06T02:23:00;20.10;99.90
40053;DHT22;25758;48.200;16.338;2022-09-06T02:25:38;20.10;99.90
40053;DHT22;25758;48.200;16.338;2022-09-06T02:28:06;20.10;99.90
40053;DHT22;25758;48.200;16.338;2022-09-06T02:30:37;20.10;99.90
40053;DHT22;25758;48.200;16.338;2022-09-06T02:33:08;20.10;99.90
40053;DHT22;25758;48.200;16.338;2022-09-06T02:35:47;20.10;99.90
40053;DHT22;25758;48.200;16.338;2022-09-06T02:38:14;20.00;99.90
40053;DHT22;25758;48.200;16.338;2022-09-06T02:40:40;20.00;99.90
40053;DHT22;25758;48.200;16.338;2022-09-06T02:43:07;20.00;99.90
40053;DHT22;25758;48.200;16.338;2022-09-06T02:45:33;20.00;99.90
40053;DHT22;25758;48.200;16.338;2022-09-06T02:47:59;20.00;99.90
40053;DHT22;25758;48.200;16.338;2022-09-06T02:50:25;19.90;99.90
40053;DHT22;25758;48.200;16.338;2022-09-06T02:53:11;19.90;99.90
40053;DHT22;25758;48.200;16.338;2022-09-06T02:55:37;19.90;99.90
40053;DHT22;25758;48.200;16.338;2022-09-06T02:58:04;19.90;99.90
40053;DHT22;25758;48.200;16.338;2022-09-06T03:00:31;19.90;99.90
40053;DHT22;25758;48.200;16.338;2022-09-06T03:02:57;19.90;99.90
40053;DHT22;25758;48.200;16.338;2022-09-06T03:05:24;19.80;99.90
40053;DHT22;25758;48.200;16.338;2022-09-06T03:07:50;19.80;99.90
40053;DHT22;25758;48.200;16.338;2022-09-06T03:10:19;19.80;99.90
40053;DHT22;25758;48.200;16.338;2022-09-06T03:12:45;19.80;99.90
40053;DHT22;25758;48.200;16.338;2022-09-06T03:15:12;19.70;99.90
40053;DHT22;25758;48.200;16.338;2022-09-06T03:17:39;19.70;99.90
40053;DHT22;25758;48.200;16.338;2022-09-06T03:20:05;19.70;99.90
40053;DHT22;25758;48.200;16.338;2022-09-06T03:22:31;19.70;99.90
40053;DHT22;25758;48.200;16.338;2022-09-06T03:24:57;19.70;99.90
40053;DHT22;25758;48.200;16.338;2022-09-06T03:27:23;19.70;99.90
40053;DHT22;25758;48.200;16.338;2022-09-06T03:29:48;19.70;99.90
40053;DHT22;25758;48.200;16.338;2022-09-06T03:32:14;19.60;99.90
40053;DHT22;25758;48.200;16.338;2022-09-06T03:34:41;19.60;99.90
40053;DHT22;25758;48.200;16.338;2022-09-06T03:37:07;19.60;99.90
40053;DHT22;25758;48.200;16.338;2022-09-06T03:39:33;19.60;99.90
40053;DHT22;25758;48.200;16.338;2022-09-06T03:41:58;19.60;99.90
40053;DHT22;25758;48.200;16.338;2022-09-06T03:44:24;19.60;99.90
40053;DHT22;25758;48.200;16.338;2022-09-06T03:46:49;19.60;99.90
40053;DHT22;25758;48.200;16.338;2022-09-06T03:49:16;19.50;99.90
40053;DHT22;25758;48.200;16.338;2022-09-06T03:51:42;19.50;99.90
40053;DHT22;25758;48.200;16.338;2022-09-06T03:54:08;19.50;99.90
40053;DHT22;25758;48.200;16.338;2022-09-06T03:56:33;19.40;99.90
40053;DHT22;25758;48.200;16.338;2022-09-06T03:58:59;19.50;99.90
40053;DHT22;25758;48.200;16.338;2022-09-06T04:01:26;19.40;99.90
40053;DHT22;25758;48.200;16.338;2022-09-06T04:03:52;19.50;99.90
40053;DHT22;25758;48.200;16.338;2022-09-06T04:06:17;19.40;99.90
40053;DHT22;25758;48.200;16.338;2022-09-06T04:08:43;19.40;99.90
40053;DHT22;25758;48.200;16.338;2022-09-06T04:11:08;19.60;99.90
40053;DHT22;25758;48.200;16.338;2022-09-06T04:13:35;19.40;99.90
40053;DHT22;25758;48.200;16.338;2022-09-06T04:16:01;19.40;99.90
40053;DHT22;25758;48.200;16.338;2022-09-06T04:18:27;19.40;99.90
40053;DHT22;25758;48.200;16.338;2022-09-06T04:20:54;19.40;99.90
40053;DHT22;25758;48.200;16.338;2022-09-06T04:23:21;19.40;99.90
40053;DHT22;25758;48.200;16.338;2022-09-06T04:25:49;19.40;99.90
40053;DHT22;25758;48.200;16.338;2022-09-06T04:28:16;19.40;99.90
40053;DHT22;25758;48.200;16.338;2022-09-06T04:30:43;19.40;99.90
40053;DHT22;25758;48.200;16.338;2022-09-06T04:33:08;19.40;99.90
40053;DHT22;25758;48.200;16.338;2022-09-06T04:35:34;19.40;99.90
40053;DHT22;25758;48.200;16.338;2022-09-06T04:38:00;19.30;99.90
40053;DHT22;25758;48.200;16.338;2022-09-06T04:40:26;19.30;99.90
40053;DHT22;25758;48.200;16.338;2022-09-06T04:42:52;19.30;99.90
40053;DHT22;25758;48.200;16.338;2022-09-06T04:45:17;19.20;99.90
40053;DHT22;25758;48.200;16.338;2022-09-06T04:47:43;19.20;99.90
40053;DHT22;25758;48.200;16.338;2022-09-06T04:50:09;19.20;99.90
40053;DHT22;25758;48.200;16.338;2022-09-06T04:52:34;19.20;99.90
40053;DHT22;25758;48.200;16.338;2022-09-06T04:55:00;19.20;99.90
40053;DHT22;25758;48.200;16.338;2022-09-06T04:57:25;19.20;99.90
40053;DHT22;25758;48.200;16.338;2022-09-06T04:59:51;19.20;99.90
40053;DHT22;25758;48.200;16.338;2022-09-06T05:02:17;19.20;99.90
40053;DHT22;25758;48.200;16.338;2022-09-06T05:04:42;19.10;99.90
40053;DHT22;25758;48.200;16.338;2022-09-06T05:07:08;19.00;99.90
40053;DHT22;25758;48.200;16.338;2022-09-06T05:09:34;19.00;99.90
40053;DHT22;25758;48.200;16.338;2022-09-06T05:12:01;19.00;99.90
40053;DHT22;25758;48.200;16.338;2022-09-06T05:14:27;19.00;99.90
40053;DHT22;25758;48.200;16.338;2022-09-06T05:16:53;19.00;99.90
40053;DHT22;25758;48.200;16.338;2022-09-06T05:19:20;19.00;99.90
40053;DHT22;25758;48.200;16.338;2022-09-06T05:21:46;19.00;99.90
40053;DHT22;25758;48.200;16.338;2022-09-06T05:24:12;19.10;99.90
40053;DHT22;25758;48.200;16.338;2022-09-06T05:26:37;19.10;99.90
40053;DHT22;25758;48.200;16.338;2022-09-06T05:29:03;19.10;99.90
40053;DHT22;25758;48.200;16.338;2022-09-06T05:31:31;19.10;99.90
40053;DHT22;25758;48.200;16.338;2022-09-06T05:33:58;19.10;99.90
40053;DHT22;25758;48.200;16.338;2022-09-06T05:36:25;19.10;99.90
40053;DHT22;25758;48.200;16.338;2022-09-06T05:38:52;19.10;99.90
40053;DHT22;25758;48.200;16.338;2022-09-06T05:41:18;19.10;99.90
40053;DHT22;25758;48.200;16.338;2022-09-06T05:43:44;19.10;99.90
40053;DHT22;25758;48.200;16.338;2022-09-06T05:46:10;19.10;99.90
40053;DHT22;25758;48.200;16.338;2022-09-06T05:48:35;19.10;99.90
40053;DHT22;25758;48.200;16.338;2022-09-06T05:51:20;19.10;99.90
40053;DHT22;25758;48.200;16.338;2022-09-06T05:53:46;19.10;99.90
40053;DHT22;25758;48.200;16.338;2022-09-06T05:56:13;19.20;99.90
40053;DHT22;25758;48.200;16.338;2022-09-06T05:58:39;19.20;99.90
40053;DHT22;25758;48.200;16.338;2022-09-06T06:03:39;19.20;99.90
40053;DHT22;25758;48.200;16.338;2022-09-06T06:06:05;19.20;99.90
40053;DHT22;25758;48.200;16.338;2022-09-06T06:08:30;19.20;99.90
40053;DHT22;25758;48.200;16.338;2022-09-06T06:11:00;19.20;99.90
40053;DHT22;25758;48.200;16.338;2022-09-06T06:13:27;19.30;99.90
40053;DHT22;25758;48.200;16.338;2022-09-06T06:15:56;19.30;99.90
40053;DHT22;25758;48.200;16.338;2022-09-06T06:18:22;19.30;99.90
40053;DHT22;25758;48.200;16.338;2022-09-06T06:20:48;19.40;99.90
40053;DHT22;25758;48.200;16.338;2022-09-06T06:23:16;19.30;99.90
40053;DHT22;25758;48.200;16.338;2022-09-06T06:25:42;19.40;99.90
40053;DHT22;25758;48.200;16.338;2022-09-06T06:28:08;19.40;99.90
40053;DHT22;25758;48.200;16.338;2022-09-06T06:30:33;19.40;99.90
40053;DHT22;25758;48.200;16.338;2022-09-06T06:32:59;19.50;99.90
40053;DHT22;25758;48.200;16.338;2022-09-06T06:35:26;19.50;99.90
40053;DHT22;25758;48.200;16.338;2022-09-06T06:37:52;19.50;99.90
40053;DHT22;25758;48.200;16.338;2022-09-06T06:40:17;19.50;99.90
40053;DHT22;25758;48.200;16.338;2022-09-06T06:42:43;19.60;99.90
40053;DHT22;25758;48.200;16.338;2022-09-06T06:45:09;19.60;99.90
40053;DHT22;25758;48.200;16.338;2022-09-06T06:47:35;19.60;99.90
40053;DHT22;25758;48.200;16.338;2022-09-06T06:50:00;19.60;99.90
40053;DHT22;25758;48.200;16.338;2022-09-06T06:52:26;19.70;99.90
40053;DHT22;25758;48.200;16.338;2022-09-06T06:54:51;19.70;99.90
40053;DHT22;25758;48.200;16.338;2022-09-06T06:57:17;19.80;99.90
40053;DHT22;25758;48.200;16.338;2022-09-06T06:59:43;19.80;99.90
40053;DHT22;25758;48.200;16.338;2022-09-06T07:02:08;19.80;99.90
40053;DHT22;25758;48.200;16.338;2022-09-06T07:04:34;19.90;99.90
40053;DHT22;25758;48.200;16.338;2022-09-06T07:07:00;19.90;99.90
40053;DHT22;25758;48.200;16.338;2022-09-06T07:09:25;19.90;99.90
40053;DHT22;25758;48.200;16.338;2022-09-06T07:11:51;20.00;99.90
40053;DHT22;25758;48.200;16.338;2022-09-06T07:14:17;20.00;99.90
40053;DHT22;25758;48.200;16.338;2022-09-06T07:16:43;20.00;99.90
40053;DHT22;25758;48.200;16.338;2022-09-06T07:19:09;20.00;99.90
40053;DHT22;25758;48.200;16.338;2022-09-06T07:21:35;20.10;99.90
40053;DHT22;25758;48.200;16.338;2022-09-06T07:24:01;20.10;99.90
40053;DHT22;25758;48.200;16.338;2022-09-06T07:26:28;20.10;99.90
40053;DHT22;25758;48.200;16.338;2022-09-06T07:28:56;20.20;99.90
40053;DHT22;25758;48.200;16.338;2022-09-06T07:31:22;20.20;99.90
40053;DHT22;25758;48.200;16.338;2022-09-06T07:33:49;20.20;99.90
40053;DHT22;25758;48.200;16.338;2022-09-06T07:36:15;20.30;99.90
40053;DHT22;25758;48.200;16.338;2022-09-06T07:38:41;20.30;99.90
40053;DHT22;25758;48.200;16.338;2022-09-06T07:41:09;20.30;99.90
40053;DHT22;25758;48.200;16.338;2022-09-06T07:43:35;20.30;99.90
40053;DHT22;25758;48.200;16.338;2022-09-06T07:46:06;20.40;99.90
40053;DHT22;25758;48.200;16.338;2022-09-06T07:48:34;20.50;99.90
40053;DHT22;25758;48.200;16.338;2022-09-06T07:51:08;20.50;99.90
40053;DHT22;25758;48.200;16.338;2022-09-06T07:53:35;20.60;99.90
40053;DHT22;25758;48.200;16.338;2022-09-06T07:56:03;20.70;99.90
40053;DHT22;25758;48.200;16.338;2022-09-06T07:58:29;20.80;99.90
40053;DHT22;25758;48.200;16.338;2022-09-06T08:03:56;21.10;99.90
40053;DHT22;25758;48.200;16.338;2022-09-06T08:06:23;21.50;99.90
40053;DHT22;25758;48.200;16.338;2022-09-06T08:08:49;21.80;99.90
40053;DHT22;25758;48.200;16.338;2022-09-06T08:11:15;22.20;99.70
40053;DHT22;25758;48.200;16.338;2022-09-06T08:13:41;22.60;99.00
40053;DHT22;25758;48.200;16.338;2022-09-06T08:16:09;22.90;98.30
40053;DHT22;25758;48.200;16.338;2022-09-06T08:18:35;23.20;97.70
40053;DHT22;25758;48.200;16.338;2022-09-06T08:21:09;23.50;97.20
40053;DHT22;25758;48.200;16.338;2022-09-06T08:23:36;23.70;97.00
40053;DHT22;25758;48.200;16.338;2022-09-06T08:26:02;24.00;96.50
40053;DHT22;25758;48.200;16.338;2022-09-06T08:28:28;24.30;96.00
40053;DHT22;25758;48.200;16.338;2022-09-06T08:30:54;24.50;95.50
40053;DHT22;25758;48.200;16.338;2022-09-06T08:33:19;24.60;95.30
40053;DHT22;25758;48.200;16.338;2022-09-06T08:35:58;24.80;95.10
40053;DHT22;25758;48.200;16.338;2022-09-06T08:38:25;25.00;94.80
40053;DHT22;25758;48.200;16.338;2022-09-06T08:40:53;25.10;94.20
40053;DHT22;25758;48.200;16.338;2022-09-06T08:43:21;25.10;94.10
40053;DHT22;25758;48.200;16.338;2022-09-06T08:45:51;25.00;94.10
40053;DHT22;25758;48.200;16.338;2022-09-06T08:48:19;25.10;94.10
40053;DHT22;25758;48.200;16.338;2022-09-06T08:50:54;25.10;94.10
40053;DHT22;25758;48.200;16.338;2022-09-06T08:53:21;25.20;94.10
40053;DHT22;25758;48.200;16.338;2022-09-06T08:55:53;25.40;94.30
40053;DHT22;25758;48.200;16.338;2022-09-06T09:00:52;25.90;93.40
40053;DHT22;25758;48.200;16.338;2022-09-06T09:03:25;26.00;93.20
40053;DHT22;25758;48.200;16.338;2022-09-06T09:05:55;26.00;92.80
40053;DHT22;25758;48.200;16.338;2022-09-06T09:08:36;26.20;92.80
40053;DHT22;25758;48.200;16.338;2022-09-06T09:11:11;26.30;92.50
40053;DHT22;25758;48.200;16.338;2022-09-06T09:16:12;26.60;92.10
40053;DHT22;25758;48.200;16.338;2022-09-06T09:18:40;26.60;91.90
40053;DHT22;25758;48.200;16.338;2022-09-06T09:21:08;26.70;91.70
40053;DHT22;25758;48.200;16.338;2022-09-06T09:23:34;26.80;91.90
40053;DHT22;25758;48.200;16.338;2022-09-06T09:26:09;26.60;91.50
40053;DHT22;25758;48.200;16.338;2022-09-06T09:28:35;26.70;91.40
40053;DHT22;25758;48.200;16.338;2022-09-06T09:31:01;26.80;91.80
40053;DHT22;25758;48.200;16.338;2022-09-06T09:33:33;27.00;91.30
40053;DHT22;25758;48.200;16.338;2022-09-06T09:36:08;27.10;90.90
40053;DHT22;25758;48.200;16.338;2022-09-06T09:38:45;26.80;90.80
40053;DHT22;25758;48.200;16.338;2022-09-06T09:44:00;25.90;92.50
40053;DHT22;25758;48.200;16.338;2022-09-06T09:46:32;26.20;92.60
40053;DHT22;25758;48.200;16.338;2022-09-06T09:49:09;26.10;91.50
40053;DHT22;25758;48.200;16.338;2022-09-06T09:51:46;26.70;91.30
40053;DHT22;25758;48.200;16.338;2022-09-06T09:54:14;26.80;91.20
40053;DHT22;25758;48.200;16.338;2022-09-06T09:56:55;26.90;91.10
40053;DHT22;25758;48.200;16.338;2022-09-06T09:59:27;27.20;90.80
40053;DHT22;25758;48.200;16.338;2022-09-06T10:01:58;27.50;90.90
40053;DHT22;25758;48.200;16.338;2022-09-06T10:04:37;27.60;90.30
40053;DHT22;25758;48.200;16.338;2022-09-06T10:07:22;27.80;90.10
40053;DHT22;25758;48.200;16.338;2022-09-06T10:09:57;28.00;90.00
40053;DHT22;25758;48.200;16.338;2022-09-06T10:12:35;28.20;89.50
40053;DHT22;25758;48.200;16.338;2022-09-06T10:15:04;28.40;89.10
40053;DHT22;25758;48.200;16.338;2022-09-06T10:17:34;28.60;88.80
40053;DHT22;25758;48.200;16.338;2022-09-06T10:22:50;29.00;86.90
40053;DHT22;25758;48.200;16.338;2022-09-06T10:33:51;29.50;84.40
40053;DHT22;25758;48.200;16.338;2022-09-06T10:36:34;29.80;84.10
40053;DHT22;25758;48.200;16.338;2022-09-06T10:47:17;30.00;82.40
40053;DHT22;25758;48.200;16.338;2022-09-06T10:49:52;30.20;82.00
40053;DHT22;25758;48.200;16.338;2022-09-06T10:52:33;30.30;82.30
40053;DHT22;25758;48.200;16.338;2022-09-06T10:55:02;30.60;81.60
40053;DHT22;25758;48.200;16.338;2022-09-06T10:57:38;30.80;81.60
40053;DHT22;25758;48.200;16.338;2022-09-06T11:00:08;30.80;80.00
40053;DHT22;25758;48.200;16.338;2022-09-06T11:05:29;31.10;79.70
40053;DHT22;25758;48.200;16.338;2022-09-06T11:08:02;31.30;78.60
40053;DHT22;25758;48.200;16.338;2022-09-06T11:10:32;31.50;78.50
40053;DHT22;25758;48.200;16.338;2022-09-06T11:13:02;31.40;77.00
40053;DHT22;25758;48.200;16.338;2022-09-06T11:15:47;31.40;77.50
40053;DHT22;25758;48.200;16.338;2022-09-06T11:18:38;31.30;78.10
40053;DHT22;25758;48.200;16.338;2022-09-06T11:23:46;31.30;77.90
40053;DHT22;25758;48.200;16.338;2022-09-06T11:26:30;31.50;76.70
40053;DHT22;25758;48.200;16.338;2022-09-06T11:29:07;31.40;75.70
40053;DHT22;25758;48.200;16.338;2022-09-06T11:31:54;31.40;75.30
40053;DHT22;25758;48.200;16.338;2022-09-06T11:37:47;31.20;76.20
40053;DHT22;25758;48.200;16.338;2022-09-06T11:40:20;31.00;75.80
40053;DHT22;25758;48.200;16.338;2022-09-06T11:45:14;30.80;75.90
40053;DHT22;25758;48.200;16.338;2022-09-06T11:47:52;30.50;76.40
40053;DHT22;25758;48.200;16.338;2022-09-06T11:55:40;30.20;77.30
40053;DHT22;25758;48.200;16.338;2022-09-06T12:00:41;29.80;77.10
40053;DHT22;25758;48.200;16.338;2022-09-06T12:03:08;29.90;78.00
40053;DHT22;25758;48.200;16.338;2022-09-06T12:08:37;29.60;78.40
40053;DHT22;25758;48.200;16.338;2022-09-06T12:19:57;29.00;80.50
40053;DHT22;25758;48.200;16.338;2022-09-06T12:28:03;28.70;81.10
40053;DHT22;25758;48.200;16.338;2022-09-06T12:33:32;28.60;80.90
40053;DHT22;25758;48.200;16.338;2022-09-06T12:36:19;28.50;81.50
40053;DHT22;25758;48.200;16.338;2022-09-06T12:39:12;28.50;82.10
40053;DHT22;25758;48.200;16.338;2022-09-06T12:41:42;28.40;82.20
40053;DHT22;25758;48.200;16.338;2022-09-06T12:44:09;28.40;82.00
40053;DHT22;25758;48.200;16.338;2022-09-06T12:46:36;28.30;82.50
40053;DHT22;25758;48.200;16.338;2022-09-06T12:49:09;28.30;82.40
40053;DHT22;25758;48.200;16.338;2022-09-06T12:51:39;28.30;82.60
40053;DHT22;25758;48.200;16.338;2022-09-06T12:54:18;28.20;82.40
40053;DHT22;25758;48.200;16.338;2022-09-06T12:56:44;28.20;82.90
40053;DHT22;25758;48.200;16.338;2022-09-06T12:59:15;28.20;83.00
40053;DHT22;25758;48.200;16.338;2022-09-06T13:01:50;28.10;82.90
40053;DHT22;25758;48.200;16.338;2022-09-06T13:04:38;28.10;82.40
40053;DHT22;25758;48.200;16.338;2022-09-06T13:07:05;28.10;83.00
40053;DHT22;25758;48.200;16.338;2022-09-06T13:09:33;28.00;83.20
40053;DHT22;25758;48.200;16.338;2022-09-06T13:12:05;28.10;83.10
40053;DHT22;25758;48.200;16.338;2022-09-06T13:14:32;28.10;83.10
40053;DHT22;25758;48.200;16.338;2022-09-06T13:16:59;28.00;83.20
40053;DHT22;25758;48.200;16.338;2022-09-06T13:19:36;28.00;83.30
40053;DHT22;25758;48.200;16.338;2022-09-06T13:22:07;27.90;83.60
40053;DHT22;25758;48.200;16.338;2022-09-06T13:30:00;27.70;84.10
40053;DHT22;25758;48.200;16.338;2022-09-06T13:32:27;27.60;84.40
40053;DHT22;25758;48.200;16.338;2022-09-06T13:34:53;27.60;84.60
40053;DHT22;25758;48.200;16.338;2022-09-06T13:37:24;27.60;84.70
40053;DHT22;25758;48.200;16.338;2022-09-06T13:39:51;27.60;84.90
40053;DHT22;25758;48.200;16.338;2022-09-06T13:44:53;27.60;84.00
40053;DHT22;25758;48.200;16.338;2022-09-06T13:47:19;27.60;84.70
40053;DHT22;25758;48.200;16.338;2022-09-06T13:49:45;27.60;84.40
40053;DHT22;25758;48.200;16.338;2022-09-06T13:52:11;27.60;84.70
40053;DHT22;25758;48.200;16.338;2022-09-06T13:54:38;27.60;84.70
40053;DHT22;25758;48.200;16.338;2022-09-06T13:57:04;27.60;84.60
40053;DHT22;25758;48.200;16.338;2022-09-06T13:59:30;27.60;84.20
40053;DHT22;25758;48.200;16.338;2022-09-06T14:02:07;27.60;85.30
40053;DHT22;25758;48.200;16.338;2022-09-06T14:04:34;27.60;84.10
40053;DHT22;25758;48.200;16.338;2022-09-06T14:07:01;27.60;83.90
40053;DHT22;25758;48.200;16.338;2022-09-06T14:09:26;27.60;83.50
40053;DHT22;25758;48.200;16.338;2022-09-06T14:11:52;27.50;83.50
40053;DHT22;25758;48.200;16.338;2022-09-06T14:14:18;27.60;83.90
40053;DHT22;25758;48.200;16.338;2022-09-06T14:16:44;27.50;84.70
40053;DHT22;25758;48.200;16.338;2022-09-06T14:19:14;27.50;85.10
40053;DHT22;25758;48.200;16.338;2022-09-06T14:21:39;27.40;85.40
40053;DHT22;25758;48.200;16.338;2022-09-06T14:24:05;27.40;85.10
40053;DHT22;25758;48.200;16.338;2022-09-06T14:26:32;27.30;85.30
40053;DHT22;25758;48.200;16.338;2022-09-06T14:28:58;27.30;85.50
40053;DHT22;25758;48.200;16.338;2022-09-06T14:31:26;27.30;85.60
40053;DHT22;25758;48.200;16.338;2022-09-06T14:33:53;27.30;85.90
40053;DHT22;25758;48.200;16.338;2022-09-06T14:36:22;27.40;86.40
40053;DHT22;25758;48.200;16.338;2022-09-06T14:38:49;27.40;86.70
40053;DHT22;25758;48.200;16.338;2022-09-06T14:41:15;27.40;86.70
40053;DHT22;25758;48.200;16.338;2022-09-06T14:43:42;27.40;86.40
40053;DHT22;25758;48.200;16.338;2022-09-06T14:46:11;27.40;86.60
40053;DHT22;25758;48.200;16.338;2022-09-06T14:48:37;27.40;86.20
40053;DHT22;25758;48.200;16.338;2022-09-06T14:51:29;27.40;86.40
40053;DHT22;25758;48.200;16.338;2022-09-06T14:54:18;27.40;86.40
40053;DHT22;25758;48.200;16.338;2022-09-06T14:56:43;27.40;86.80
40053;DHT22;25758;48.200;16.338;2022-09-06T14:59:09;27.30;86.70
40053;DHT22;25758;48.200;16.338;2022-09-06T15:01:36;27.40;86.50
40053;DHT22;25758;48.200;16.338;2022-09-06T15:04:04;27.30;86.50
40053;DHT22;25758;48.200;16.338;2022-09-06T15:06:31;27.40;86.80
40053;DHT22;25758;48.200;16.338;2022-09-06T15:08:58;27.40;86.70
40053;DHT22;25758;48.200;16.338;2022-09-06T15:11:50;27.30;86.70
40053;DHT22;25758;48.200;16.338;2022-09-06T15:14:17;27.30;87.10
40053;DHT22;25758;48.200;16.338;2022-09-06T15:16:44;27.40;86.90
40053;DHT22;25758;48.200;16.338;2022-09-06T15:19:10;27.40;86.70
40053;DHT22;25758;48.200;16.338;2022-09-06T15:21:36;27.20;86.80
40053;DHT22;25758;48.200;16.338;2022-09-06T15:24:02;27.30;86.90
40053;DHT22;25758;48.200;16.338;2022-09-06T15:26:28;27.30;86.90
40053;DHT22;25758;48.200;16.338;2022-09-06T15:28:54;27.30;86.90
40053;DHT22;25758;48.200;16.338;2022-09-06T15:31:20;27.30;86.50
40053;DHT22;25758;48.200;16.338;2022-09-06T15:33:46;27.30;86.50
40053;DHT22;25758;48.200;16.338;2022-09-06T15:36:16;27.30;86.70
40053;DHT22;25758;48.200;16.338;2022-09-06T15:38:47;27.20;86.40
40053;DHT22;25758;48.200;16.338;2022-09-06T15:41:14;27.20;86.60
40053;DHT22;25758;48.200;16.338;2022-09-06T15:43:46;27.10;86.70
40053;DHT22;25758;48.200;16.338;2022-09-06T15:46:13;27.10;86.90
40053;DHT22;25758;48.200;16.338;2022-09-06T15:51:06;27.00;87.20
40053;DHT22;25758;48.200;16.338;2022-09-06T15:53:32;27.00;87.50
40053;DHT22;25758;48.200;16.338;2022-09-06T15:55:59;26.90;87.60
40053;DHT22;25758;48.200;16.338;2022-09-06T15:58:27;26.80;87.90
40053;DHT22;25758;48.200;16.338;2022-09-06T16:01:11;26.80;88.10
40053;DHT22;25758;48.200;16.338;2022-09-06T16:03:42;26.70;88.10
40053;DHT22;25758;48.200;16.338;2022-09-06T16:08:39;26.60;88.40
40053;DHT22;25758;48.200;16.338;2022-09-06T16:11:08;26.50;88.60
40053;DHT22;25758;48.200;16.338;2022-09-06T16:13:35;26.50;88.70
40053;DHT22;25758;48.200;16.338;2022-09-06T16:16:03;26.40;88.80
40053;DHT22;25758;48.200;16.338;2022-09-06T16:18:31;26.40;88.90
40053;DHT22;25758;48.200;16.338;2022-09-06T16:20:57;26.30;89.20
40053;DHT22;25758;48.200;16.338;2022-09-06T16:23:27;26.30;89.30
40053;DHT22;25758;48.200;16.338;2022-09-06T16:25:53;26.20;89.30
40053;DHT22;25758;48.200;16.338;2022-09-06T16:28:19;26.20;89.60
40053;DHT22;25758;48.200;16.338;2022-09-06T16:30:44;26.10;89.60
40053;DHT22;25758;48.200;16.338;2022-09-06T16:33:11;26.10;89.90
40053;DHT22;25758;48.200;16.338;2022-09-06T16:35:39;26.00;89.90
40053;DHT22;25758;48.200;16.338;2022-09-06T16:38:05;25.90;90.00
40053;DHT22;25758;48.200;16.338;2022-09-06T16:40:31;25.80;90.00
40053;DHT22;25758;48.200;16.338;2022-09-06T16:42:56;25.80;90.20
40053;DHT22;25758;48.200;16.338;2022-09-06T16:45:22;25.80;90.30
40053;DHT22;25758;48.200;16.338;2022-09-06T16:47:47;25.70;90.50
40053;DHT22;25758;48.200;16.338;2022-09-06T16:50:13;25.60;90.50
40053;DHT22;25758;48.200;16.338;2022-09-06T16:52:39;25.60;90.60
40053;DHT22;25758;48.200;16.338;2022-09-06T16:55:05;25.60;90.60
40053;DHT22;25758;48.200;16.338;2022-09-06T16:57:31;25.50;90.60
40053;DHT22;25758;48.200;16.338;2022-09-06T16:59:58;25.50;90.70
40053;DHT22;25758;48.200;16.338;2022-09-06T17:02:24;25.50;90.90
40053;DHT22;25758;48.200;16.338;2022-09-06T17:04:49;25.50;91.00
40053;DHT22;25758;48.200;16.338;2022-09-06T17:07:15;25.40;91.00
40053;DHT22;25758;48.200;16.338;2022-09-06T17:09:41;25.30;90.90
40053;DHT22;25758;48.200;16.338;2022-09-06T17:12:07;25.20;91.00
40053;DHT22;25758;48.200;16.338;2022-09-06T17:14:32;25.20;91.00
40053;DHT22;25758;48.200;16.338;2022-09-06T17:16:58;25.20;91.00
40053;DHT22;25758;48.200;16.338;2022-09-06T17:19:34;27.30;91.90
40053;DHT22;25758;48.200;16.338;2022-09-06T17:21:59;25.10;91.20